createdAt,value
2023-03-24T00:01:57.131Z,15.60
2023-03-24T00:04:28.451Z,15.50
2023-03-24T00:06:55.570Z,15.60
2023-03-24T00:09:22.755Z,15.60
2023-03-24T00:11:49.886Z,15.60
2023-03-24T00:14:17.054Z,15.50
2023-03-24T00:16:45.380Z,15.50
2023-03-24T00:19:15.621Z,15.40
2023-03-24T00:21:43.491Z,15.40
2023-03-24T00:24:11.536Z,15.40
2023-03-24T00:26:39.839Z,15.40
2023-03-24T00:29:09.084Z,15.50
2023-03-24T00:31:40.128Z,15.50
2023-03-24T00:34:08.815Z,15.40
2023-03-24T00:36:36.750Z,15.20
2023-03-24T00:39:06.222Z,15.20
2023-03-24T00:41:33.884Z,15.30
2023-03-24T00:44:03.776Z,15.20
2023-03-24T00:46:31.373Z,15.30
2023-03-24T00:49:03.879Z,15.30
2023-03-24T00:51:38.493Z,15.20
2023-03-24T00:54:06.916Z,15.20
2023-03-24T00:56:35.730Z,15.20
2023-03-24T00:59:03.496Z,15.20
2023-03-24T01:01:36.517Z,15.20
2023-03-24T01:04:05.879Z,15.10
2023-03-24T01:06:36.637Z,15.10
2023-03-24T01:09:05.612Z,15.10
2023-03-24T01:11:35.793Z,15.10
2023-03-24T01:14:04.036Z,15.10
2023-03-24T01:16:31.787Z,15.00
2023-03-24T01:18:59.502Z,15.00
2023-03-24T01:21:26.744Z,14.90
2023-03-24T01:23:54.452Z,14.80
2023-03-24T01:26:21.643Z,14.70
2023-03-24T01:28:48.884Z,14.70
2023-03-24T01:31:16.672Z,14.60
2023-03-24T01:33:43.877Z,14.50
2023-03-24T01:36:11.561Z,14.60
2023-03-24T01:38:38.803Z,14.50
2023-03-24T01:41:06.244Z,14.50
2023-03-24T01:43:35.856Z,14.40
2023-03-24T01:46:08.164Z,14.40
2023-03-24T01:48:35.457Z,14.50
2023-03-24T01:51:02.686Z,14.50
2023-03-24T01:53:31.211Z,14.40
2023-03-24T01:55:59.459Z,14.40
2023-03-24T01:58:32.207Z,14.50
2023-03-24T02:01:20.135Z,14.40
2023-03-24T02:04:03.981Z,14.50
2023-03-24T02:06:36.172Z,14.50
2023-03-24T02:09:04.308Z,14.50
2023-03-24T02:11:33.059Z,14.70
2023-03-24T02:14:04.707Z,14.60
2023-03-24T02:16:38.369Z,14.70
2023-03-24T02:19:37.934Z,14.70
2023-03-24T02:22:14.076Z,14.70
2023-03-24T02:24:49.031Z,14.70
2023-03-24T02:27:16.428Z,14.70
2023-03-24T02:29:43.591Z,14.60
2023-03-24T02:32:19.749Z,14.50
2023-03-24T02:34:55.108Z,14.50
2023-03-24T02:37:27.424Z,14.50
2023-03-24T02:39:58.641Z,14.30
2023-03-24T02:42:34.740Z,14.40
2023-03-24T02:45:14.211Z,14.40
2023-03-24T02:47:44.386Z,14.40
2023-03-24T02:50:44.296Z,14.30
2023-03-24T02:53:16.619Z,14.30
2023-03-24T02:56:21.995Z,14.30
2023-03-24T02:59:10.368Z,14.20
2023-03-24T03:01:43.708Z,14.20
2023-03-24T03:04:33.833Z,14.10
2023-03-24T03:07:06.455Z,14.00
2023-03-24T03:09:34.420Z,14.00
2023-03-24T03:12:02.202Z,13.90
2023-03-24T03:14:41.525Z,13.90
2023-03-24T03:17:16.199Z,13.90
2023-03-24T03:19:45.368Z,13.80
2023-03-24T03:22:17.875Z,13.90
2023-03-24T03:24:53.071Z,13.90
2023-03-24T03:27:27.321Z,13.80
2023-03-24T03:29:56.850Z,13.80
2023-03-24T03:32:30.396Z,13.80
2023-03-24T03:35:00.717Z,13.80
2023-03-24T03:37:32.582Z,13.80
2023-03-24T03:40:03.345Z,13.80
2023-03-24T03:42:31.728Z,13.80
2023-03-24T03:44:59.160Z,13.70
2023-03-24T03:47:27.175Z,13.60
2023-03-24T03:49:55.477Z,13.50
2023-03-24T03:52:22.643Z,13.60
2023-03-24T03:54:51.852Z,13.60
2023-03-24T03:57:19.123Z,13.80
2023-03-24T04:00:15.824Z,13.60
2023-03-24T04:02:52.654Z,13.60
2023-03-24T04:05:29.948Z,13.60
2023-03-24T04:08:17.264Z,13.50
2023-03-24T04:11:08.292Z,13.50
2023-03-24T04:13:45.156Z,13.50
2023-03-24T04:16:36.463Z,13.50
2023-03-24T04:19:13.927Z,13.50
2023-03-24T04:21:48.777Z,13.50
2023-03-24T04:24:27.505Z,13.40
2023-03-24T04:27:09.850Z,13.60
2023-03-24T04:29:53.255Z,13.50
2023-03-24T04:32:47.263Z,13.40
2023-03-24T04:35:31.883Z,13.30
2023-03-24T04:38:17.311Z,13.40
2023-03-24T04:40:49.567Z,13.30
2023-03-24T04:43:19.593Z,13.40
2023-03-24T04:45:49.998Z,13.40
2023-03-24T04:48:25.578Z,13.30
2023-03-24T04:51:12.260Z,13.30
2023-03-24T04:54:02.572Z,13.30
2023-03-24T04:56:32.050Z,13.20
2023-03-24T04:59:04.351Z,13.10
2023-03-24T05:01:32.775Z,13.20
2023-03-24T05:04:21.793Z,13.10
2023-03-24T05:06:52.004Z,13.20
2023-03-24T05:09:24.030Z,13.10
2023-03-24T05:11:51.771Z,13.00
2023-03-24T05:14:19.999Z,13.20
2023-03-24T05:16:47.287Z,13.20
2023-03-24T05:19:20.939Z,13.10
2023-03-24T05:21:48.184Z,13.10
2023-03-24T05:24:17.589Z,13.20
2023-03-24T05:26:44.891Z,13.20
2023-03-24T05:29:17.755Z,13.20
2023-03-24T05:31:45.680Z,13.10
2023-03-24T05:34:17.149Z,13.10
2023-03-24T05:36:52.812Z,13.00
2023-03-24T05:39:21.699Z,13.10
2023-03-24T05:42:03.975Z,13.10
2023-03-24T05:44:31.297Z,13.10
2023-03-24T05:47:04.796Z,13.10
2023-03-24T05:49:32.163Z,13.20
2023-03-24T05:52:00.488Z,13.30
2023-03-24T05:54:28.061Z,13.30
2023-03-24T05:57:04.112Z,13.30
2023-03-24T05:59:39.262Z,13.40
2023-03-24T06:02:20.449Z,13.40
2023-03-24T06:04:53.241Z,13.50
2023-03-24T06:07:26.970Z,13.40
2023-03-24T06:10:03.194Z,13.50
2023-03-24T06:12:40.895Z,13.70
2023-03-24T06:15:08.837Z,13.70
2023-03-24T06:17:37.476Z,13.70
2023-03-24T06:20:15.933Z,14.00
2023-03-24T06:22:50.364Z,14.10
2023-03-24T06:25:26.170Z,14.20
2023-03-24T06:28:09.743Z,14.20
2023-03-24T06:30:37.154Z,14.20
2023-03-24T06:33:07.082Z,14.20
2023-03-24T06:35:35.493Z,14.00
2023-03-24T06:38:07.017Z,14.10
2023-03-24T06:40:35.136Z,14.10
2023-03-24T06:43:03.710Z,14.20
2023-03-24T06:45:35.245Z,14.20
2023-03-24T06:48:03.194Z,14.40
2023-03-24T06:50:33.349Z,14.50
2023-03-24T06:53:04.773Z,14.60
2023-03-24T06:55:34.251Z,14.80
2023-03-24T06:58:01.482Z,15.10
2023-03-24T07:00:42.458Z,15.00
2023-03-24T07:03:25.154Z,15.10
2023-03-24T07:06:15.450Z,15.10
2023-03-24T07:08:44.645Z,15.80
2023-03-24T07:11:11.825Z,16.60
2023-03-24T07:13:47.175Z,17.10
2023-03-24T07:16:14.398Z,17.20
2023-03-24T07:18:41.714Z,17.50
2023-03-24T07:21:09.003Z,17.20
2023-03-24T07:23:37.465Z,17.30
2023-03-24T07:26:13.696Z,17.60
2023-03-24T07:28:47.479Z,17.90
2023-03-24T07:31:25.597Z,17.50
2023-03-24T07:34:01.916Z,17.30
2023-03-24T07:36:29.335Z,17.40
2023-03-24T07:38:57.633Z,17.30
2023-03-24T07:41:31.421Z,16.90
2023-03-24T07:44:03.038Z,16.60
2023-03-24T07:46:33.822Z,16.30
2023-03-24T07:49:12.267Z,16.30
2023-03-24T07:51:48.744Z,16.20
2023-03-24T07:54:30.013Z,16.30
2023-03-24T07:56:59.267Z,16.20
2023-03-24T07:59:27.926Z,16.20
2023-03-24T08:02:16.470Z,16.10
2023-03-24T08:04:56.553Z,16.00
2023-03-24T08:07:42.779Z,16.00
2023-03-24T08:10:15.502Z,16.00
2023-03-24T08:12:42.595Z,15.90
2023-03-24T08:15:10.050Z,15.80
2023-03-24T08:17:37.243Z,15.80
2023-03-24T08:20:14.570Z,15.90
2023-03-24T08:22:43.086Z,15.70
2023-03-24T08:25:11.354Z,15.60
2023-03-24T08:27:39.323Z,15.70
2023-03-24T08:30:07.526Z,15.70
2023-03-24T08:32:34.890Z,15.60
2023-03-24T08:35:04.891Z,15.60
2023-03-24T08:37:32.074Z,15.50
2023-03-24T08:40:04.062Z,15.80
2023-03-24T08:42:31.306Z,15.90
2023-03-24T08:44:58.654Z,15.90
2023-03-24T08:47:26.127Z,15.80
2023-03-24T08:49:57.958Z,16.00
2023-03-24T08:52:26.089Z,16.10
2023-03-24T08:54:53.173Z,16.10
2023-03-24T08:57:21.622Z,16.40
2023-03-24T08:59:50.858Z,16.60
2023-03-24T09:02:18.691Z,17.10
2023-03-24T09:04:45.990Z,17.60
2023-03-24T09:07:13.167Z,17.70
2023-03-24T09:09:40.300Z,17.60
2023-03-24T09:12:07.845Z,18.00
2023-03-24T09:14:35.299Z,18.50
2023-03-24T09:17:02.962Z,18.20
2023-03-24T09:19:34.182Z,18.20
2023-03-24T09:22:01.252Z,18.20
2023-03-24T09:24:28.380Z,18.30
2023-03-24T09:26:55.522Z,18.30
2023-03-24T09:29:22.757Z,18.00
2023-03-24T09:31:50.502Z,17.70
2023-03-24T09:34:21.517Z,18.00
2023-03-24T09:36:48.650Z,17.80
2023-03-24T09:39:16.610Z,17.80
2023-03-24T09:41:48.584Z,18.10
2023-03-24T09:44:30.667Z,18.10
2023-03-24T09:47:00.913Z,18.30
2023-03-24T09:49:29.164Z,18.10
2023-03-24T09:52:00.501Z,18.00
2023-03-24T09:54:36.805Z,18.20
2023-03-24T09:57:06.283Z,18.10
2023-03-24T09:59:38.031Z,18.10
2023-03-24T10:02:13.657Z,18.10
2023-03-24T10:04:40.846Z,18.30
2023-03-24T10:07:26.686Z,18.30
2023-03-24T10:09:57.057Z,18.30
2023-03-24T10:12:37.592Z,18.40
2023-03-24T10:15:08.735Z,18.60
2023-03-24T10:17:35.828Z,18.60
2023-03-24T10:20:16.759Z,18.60
2023-03-24T10:22:43.812Z,18.80
2023-03-24T10:25:13.780Z,19.10
2023-03-24T10:27:47.680Z,19.10
2023-03-24T10:30:20.787Z,19.30
2023-03-24T10:32:47.962Z,19.30
2023-03-24T10:35:18.456Z,19.40
2023-03-24T10:37:45.883Z,19.60
2023-03-24T10:40:18.227Z,19.80
2023-03-24T10:42:48.765Z,20.30
2023-03-24T10:45:23.097Z,20.40
2023-03-24T10:47:51.050Z,20.50
2023-03-24T10:50:18.822Z,20.80
2023-03-24T10:52:48.731Z,21.40
2023-03-24T10:55:17.552Z,21.40
2023-03-24T10:57:49.869Z,21.40
2023-03-24T11:00:21.293Z,21.00
2023-03-24T11:02:56.085Z,21.00
2023-03-24T11:05:30.689Z,21.40
2023-03-24T11:07:59.680Z,21.50
2023-03-24T11:10:27.346Z,21.50
2023-03-24T11:12:54.448Z,21.60
2023-03-24T11:15:23.359Z,21.80
2023-03-24T11:17:53.668Z,21.70
2023-03-24T11:20:25.204Z,21.90
2023-03-24T11:23:15.352Z,22.30
2023-03-24T11:25:45.039Z,22.40
2023-03-24T11:28:16.632Z,22.10
2023-03-24T11:30:46.527Z,22.10
2023-03-24T11:33:19.332Z,22.00
2023-03-24T11:35:52.797Z,22.10
2023-03-24T11:38:34.482Z,22.30
2023-03-24T11:41:04.964Z,22.50
2023-03-24T11:43:32.505Z,22.40
2023-03-24T11:46:13.367Z,22.50
2023-03-24T11:48:57.601Z,22.70
2023-03-24T11:51:38.526Z,22.90
2023-03-24T11:54:08.973Z,22.90
2023-03-24T11:56:43.398Z,23.00
2023-03-24T11:59:22.600Z,23.20
2023-03-24T12:01:58.861Z,23.10
2023-03-24T12:04:28.791Z,22.90
2023-03-24T12:07:07.562Z,23.20
2023-03-24T12:09:55.108Z,23.50
2023-03-24T12:12:34.267Z,23.30
2023-03-24T12:15:28.218Z,23.20
2023-03-24T12:18:05.144Z,23.40
2023-03-24T12:20:39.539Z,23.40
2023-03-24T12:23:06.809Z,23.30
2023-03-24T12:25:52.816Z,23.50
2023-03-24T12:28:34.867Z,23.60
2023-03-24T12:31:24.260Z,23.80
2023-03-24T12:34:04.142Z,24.00
2023-03-24T12:36:51.549Z,24.00
2023-03-24T12:39:26.613Z,23.90
2023-03-24T12:42:05.800Z,23.30
2023-03-24T12:44:50.983Z,23.50
2023-03-24T12:47:39.957Z,22.90
2023-03-24T12:50:14.663Z,22.90
2023-03-24T12:53:13.571Z,23.00
2023-03-24T12:55:59.454Z,23.00
2023-03-24T12:58:35.835Z,23.20
2023-03-24T13:01:15.613Z,23.30
2023-03-24T13:03:55.464Z,23.70
2023-03-24T13:06:30.757Z,23.80
2023-03-24T13:09:18.380Z,23.50
2023-03-24T13:11:57.665Z,23.50
2023-03-24T13:14:31.219Z,23.20
2023-03-24T13:17:13.262Z,22.70
2023-03-24T13:19:41.237Z,22.40
2023-03-24T13:22:14.439Z,22.60
2023-03-24T13:24:41.780Z,22.50
2023-03-24T13:27:31.823Z,22.80
2023-03-24T13:30:09.031Z,22.70
2023-03-24T13:32:50.744Z,22.70
2023-03-24T13:35:27.061Z,23.10
2023-03-24T13:37:57.827Z,23.40
2023-03-24T13:40:29.372Z,23.40
2023-03-24T13:43:25.999Z,23.10
2023-03-24T13:46:00.269Z,22.80
2023-03-24T13:48:31.749Z,23.10
2023-03-24T13:51:04.350Z,23.40
2023-03-24T13:53:39.172Z,23.70
2023-03-24T13:56:07.481Z,24.00
2023-03-24T13:58:46.572Z,23.70
2023-03-24T14:01:17.099Z,23.90
2023-03-24T14:04:02.765Z,23.60
2023-03-24T14:06:48.534Z,23.40
2023-03-24T14:09:35.932Z,23.50
2023-03-24T14:12:07.388Z,23.60
2023-03-24T14:14:36.989Z,23.40
2023-03-24T14:17:04.187Z,22.90
2023-03-24T14:19:31.998Z,23.00
2023-03-24T14:22:04.065Z,22.80
2023-03-24T14:24:33.016Z,22.50
2023-03-24T14:27:00.212Z,22.50
2023-03-24T14:29:37.398Z,22.40
2023-03-24T14:32:17.193Z,22.40
2023-03-24T14:34:51.388Z,22.60
2023-03-24T14:37:18.573Z,22.90
2023-03-24T14:39:47.129Z,22.90
2023-03-24T14:42:32.633Z,22.90
2023-03-24T14:45:00.913Z,22.80
2023-03-24T14:47:30.797Z,22.80
2023-03-24T14:49:58.921Z,22.90
2023-03-24T14:52:29.910Z,22.90
2023-03-24T14:54:58.796Z,22.90
2023-03-24T14:57:30.660Z,23.00
2023-03-24T15:00:17.308Z,23.00
2023-03-24T15:02:45.632Z,23.10
2023-03-24T15:05:12.762Z,22.80
2023-03-24T15:07:40.446Z,22.90
2023-03-24T15:10:13.348Z,23.00
2023-03-24T15:12:43.524Z,23.00
2023-03-24T15:15:14.637Z,22.80
2023-03-24T15:17:42.931Z,22.90
2023-03-24T15:20:22.248Z,22.50
2023-03-24T15:22:50.923Z,22.40
2023-03-24T15:25:18.329Z,22.10
2023-03-24T15:27:53.731Z,22.00
2023-03-24T15:30:21.270Z,21.80
2023-03-24T15:32:51.607Z,21.70
2023-03-24T15:35:20.359Z,21.60
2023-03-24T15:37:54.517Z,21.50
2023-03-24T15:40:27.526Z,21.70
2023-03-24T15:42:56.225Z,21.60
2023-03-24T15:45:31.113Z,21.50
2023-03-24T15:48:02.601Z,21.30
2023-03-24T15:50:34.653Z,21.30
2023-03-24T15:53:06.859Z,21.30
2023-03-24T15:55:35.842Z,21.20
2023-03-24T15:58:23.158Z,21.10
2023-03-24T16:00:53.154Z,21.00
2023-03-24T16:03:26.158Z,20.90
2023-03-24T16:05:54.815Z,20.80
2023-03-24T16:08:41.204Z,20.80
2023-03-24T16:11:11.887Z,20.80
2023-03-24T16:13:39.998Z,20.90
2023-03-24T16:16:13.258Z,20.80
2023-03-24T16:18:47.113Z,20.60
2023-03-24T16:21:16.995Z,20.60
2023-03-24T16:23:46.657Z,20.60
2023-03-24T16:26:13.762Z,20.50
2023-03-24T16:28:41.007Z,20.50
2023-03-24T16:31:12.832Z,20.30
2023-03-24T16:33:40.015Z,20.30
2023-03-24T16:36:07.362Z,20.20
2023-03-24T16:38:34.452Z,20.20
2023-03-24T16:41:01.913Z,20.10
2023-03-24T16:43:33.174Z,20.10
2023-03-24T16:46:00.321Z,20.10
2023-03-24T16:48:27.420Z,20.10
2023-03-24T16:50:55.932Z,20.10
2023-03-24T16:53:23.038Z,20.00
2023-03-24T16:55:50.156Z,20.00
2023-03-24T16:58:17.273Z,19.90
2023-03-24T17:00:45.553Z,19.90
2023-03-24T17:03:14.099Z,19.80
2023-03-24T17:05:48.711Z,19.80
2023-03-24T17:08:16.486Z,19.70
2023-03-24T17:10:43.876Z,19.60
2023-03-24T17:13:21.380Z,19.60
2023-03-24T17:15:52.244Z,19.60
2023-03-24T17:18:19.817Z,19.60
2023-03-24T17:20:48.380Z,19.50
2023-03-24T17:23:18.465Z,19.50
2023-03-24T17:25:45.968Z,19.40
2023-03-24T17:28:16.705Z,19.40
2023-03-24T17:30:43.812Z,19.30
2023-03-24T17:33:14.861Z,19.30
2023-03-24T17:35:43.489Z,19.30
2023-03-24T17:38:12.959Z,19.20
2023-03-24T17:40:40.492Z,19.30
2023-03-24T17:43:07.734Z,19.20
2023-03-24T17:45:34.869Z,19.20
2023-03-24T17:48:02.045Z,19.20
2023-03-24T17:50:30.778Z,19.20
2023-03-24T17:52:58.099Z,19.20
2023-03-24T17:55:25.252Z,19.30
2023-03-24T17:57:52.528Z,19.30
2023-03-24T18:00:19.758Z,19.30
2023-03-24T18:02:49.406Z,19.30
2023-03-24T18:05:16.732Z,19.40
2023-03-24T18:07:43.843Z,19.20
2023-03-24T18:10:11.095Z,19.40
2023-03-24T18:12:38.420Z,19.40
2023-03-24T18:15:07.121Z,19.30
2023-03-24T18:17:34.424Z,19.20
2023-03-24T18:20:09.926Z,19.20
2023-03-24T18:22:37.849Z,19.20
2023-03-24T18:25:05.112Z,19.20
2023-03-24T18:27:32.489Z,19.30
2023-03-24T18:29:59.639Z,19.30
2023-03-24T18:32:27.205Z,19.30
2023-03-24T18:34:54.386Z,19.20
2023-03-24T18:37:24.062Z,19.20
2023-03-24T18:39:51.130Z,19.20
2023-03-24T18:42:18.291Z,19.20
2023-03-24T18:44:45.762Z,19.10
2023-03-24T18:47:16.098Z,19.20
2023-03-24T18:49:44.490Z,19.20
2023-03-24T18:52:11.646Z,19.20
2023-03-24T18:54:38.707Z,19.10
2023-03-24T18:57:06.165Z,19.20
2023-03-24T18:59:33.434Z,19.10
2023-03-24T19:02:00.550Z,19.20
2023-03-24T19:04:27.675Z,19.20
2023-03-24T19:06:54.798Z,19.00
2023-03-24T19:09:22.864Z,19.00
2023-03-24T19:11:50.066Z,19.10
2023-03-24T19:14:17.201Z,19.10
2023-03-24T19:16:46.206Z,19.00
2023-03-24T19:19:14.033Z,19.00
2023-03-24T19:21:41.832Z,18.90
2023-03-24T19:24:09.768Z,19.00
2023-03-24T19:26:36.852Z,19.00
2023-03-24T19:29:03.930Z,18.80
2023-03-24T19:31:31.047Z,18.80
2023-03-24T19:33:58.193Z,18.90
2023-03-24T19:36:26.294Z,18.90
2023-03-24T19:38:53.555Z,19.00
2023-03-24T19:41:20.706Z,19.00
2023-03-24T19:43:47.809Z,19.00
2023-03-24T19:46:16.558Z,18.80
2023-03-24T19:48:43.747Z,18.80
2023-03-24T19:51:11.015Z,18.60
2023-03-24T19:53:38.142Z,18.30
2023-03-24T19:56:06.676Z,18.10
2023-03-24T19:58:33.848Z,18.00
2023-03-24T20:01:01.107Z,18.00
2023-03-24T20:03:28.965Z,18.00
2023-03-24T20:05:56.252Z,18.00
2023-03-24T20:08:25.964Z,18.00
2023-03-24T20:10:53.156Z,18.00
2023-03-24T20:13:20.458Z,18.00
2023-03-24T20:15:47.640Z,17.90
2023-03-24T20:18:14.831Z,17.80
2023-03-24T20:20:42.210Z,17.80
2023-03-24T20:23:10.470Z,17.80
2023-03-24T20:25:40.869Z,17.90
2023-03-24T20:28:09.251Z,17.80
2023-03-24T20:30:36.314Z,17.80
2023-03-24T20:33:03.593Z,17.70
2023-03-24T20:35:35.940Z,17.80
2023-03-24T20:38:03.685Z,17.80
2023-03-24T20:40:30.880Z,17.70
2023-03-24T20:43:00.830Z,17.70
2023-03-24T20:45:28.033Z,17.70
2023-03-24T20:47:55.440Z,17.70
2023-03-24T20:50:22.565Z,17.70
2023-03-24T20:52:52.691Z,17.70
2023-03-24T20:55:19.867Z,17.70
2023-03-24T20:57:47.591Z,17.70
2023-03-24T21:00:14.929Z,17.60
2023-03-24T21:02:42.530Z,17.60
2023-03-24T21:05:09.901Z,17.60
2023-03-24T21:07:38.293Z,17.60
2023-03-24T21:10:06.587Z,17.50
2023-03-24T21:12:34.173Z,17.40
2023-03-24T21:15:01.497Z,17.40
2023-03-24T21:17:32.411Z,17.40
2023-03-24T21:20:13.111Z,17.40
2023-03-24T21:22:56.262Z,17.30
2023-03-24T21:25:24.570Z,17.30
2023-03-24T21:27:51.956Z,17.30
2023-03-24T21:30:19.087Z,17.40
2023-03-24T21:32:46.744Z,17.50
2023-03-24T21:35:14.505Z,17.60
2023-03-24T21:37:45.722Z,17.70
2023-03-24T21:40:13.793Z,17.70
2023-03-24T21:42:43.565Z,17.70
2023-03-24T21:45:12.707Z,17.60
2023-03-24T21:47:39.948Z,17.60
2023-03-24T21:50:07.442Z,17.70
2023-03-24T21:52:39.041Z,17.80
2023-03-24T21:55:06.476Z,17.70
2023-03-24T21:57:33.710Z,17.70
2023-03-24T22:00:01.970Z,17.60
2023-03-24T22:02:39.638Z,17.60
2023-03-24T22:05:07.040Z,17.60
2023-03-24T22:07:39.421Z,17.50
2023-03-24T22:10:08.408Z,17.50
2023-03-24T22:12:36.076Z,17.50
2023-03-24T22:15:03.381Z,17.50
2023-03-24T22:17:30.726Z,17.50
2023-03-24T22:19:57.802Z,17.60
2023-03-24T22:22:24.871Z,17.60
2023-03-24T22:24:51.948Z,17.50
2023-03-24T22:27:19.035Z,17.50
2023-03-24T22:29:48.397Z,17.60
2023-03-24T22:32:15.594Z,17.60
2023-03-24T22:34:42.742Z,17.60
2023-03-24T22:37:09.851Z,17.60
2023-03-24T22:39:37.043Z,17.50
2023-03-24T22:42:04.480Z,17.50
2023-03-24T22:44:32.132Z,17.60
2023-03-24T22:46:59.799Z,17.50
2023-03-24T22:49:26.976Z,17.50
2023-03-24T22:51:54.054Z,17.50
2023-03-24T22:54:21.484Z,17.50
2023-03-24T22:56:48.581Z,17.50
2023-03-24T22:59:15.779Z,17.50
2023-03-24T23:01:42.884Z,17.50
2023-03-24T23:04:11.808Z,17.50
2023-03-24T23:06:40.151Z,17.60
2023-03-24T23:09:07.251Z,17.50
2023-03-24T23:11:34.400Z,17.50
2023-03-24T23:14:05.171Z,17.50
2023-03-24T23:16:37.699Z,17.40
2023-03-24T23:19:06.045Z,17.50
2023-03-24T23:21:34.028Z,17.40
2023-03-24T23:24:01.302Z,17.50
2023-03-24T23:26:30.116Z,17.30
2023-03-24T23:28:57.204Z,17.30
2023-03-24T23:31:25.683Z,17.30
2023-03-24T23:33:54.078Z,17.20
2023-03-24T23:36:21.223Z,17.30
2023-03-24T23:38:50.609Z,17.30
2023-03-24T23:41:19.293Z,17.20
2023-03-24T23:43:50.146Z,17.30
2023-03-24T23:46:17.626Z,17.10
2023-03-24T23:48:44.840Z,17.00
2023-03-24T23:51:12.069Z,17.10
2023-03-24T23:53:39.257Z,17.10
2023-03-24T23:56:12.029Z,17.10
2023-03-24T23:58:40.177Z,17.20
